sensor_id;sensor_type;location;lat;lon;timestamp;pressure;altitude;pressure_sealevel;temperature;humidity
43701;BME280;58809;47.984;7.964;2023-01-30T00:01:05;98001.19;;;-3.93;95.63
43701;BME280;58809;47.984;7.964;2023-01-30T00:04:08;98002.03;;;-3.93;96.05
43701;BME280;58809;47.984;7.964;2023-01-30T00:07:10;97998.03;;;-4.00;95.52
43701;BME280;58809;47.984;7.964;2023-01-30T00:10:11;97982.84;;;-4.06;96.00
43701;BME280;58809;47.984;7.964;2023-01-30T00:13:13;97969.41;;;-3.95;96.81
43701;BME280;58809;47.984;7.964;2023-01-30T00:16:16;97958.13;;;-3.94;96.29
43701;BME280;58809;47.984;7.964;2023-01-30T00:19:18;97952.06;;;-3.93;96.17
43701;BME280;58809;47.984;7.964;2023-01-30T00:22:20;97934.69;;;-4.09;95.70
43701;BME280;58809;47.984;7.964;2023-01-30T00:25:21;97921.91;;;-4.12;96.19
43701;BME280;58809;47.984;7.964;2023-01-30T00:28:23;97922.31;;;-4.02;96.43
43701;BME280;58809;47.984;7.964;2023-01-30T00:31:25;97924.13;;;-4.04;96.40
43701;BME280;58809;47.984;7.964;2023-01-30T00:34:27;97922.69;;;-3.92;97.75
43701;BME280;58809;47.984;7.964;2023-01-30T00:37:28;97918.09;;;-3.85;97.45
43701;BME280;58809;47.984;7.964;2023-01-30T00:40:31;97923.94;;;-3.82;97.20
43701;BME280;58809;47.984;7.964;2023-01-30T00:43:33;97928.28;;;-3.82;97.35
43701;BME280;58809;47.984;7.964;2023-01-30T00:47:37;97916.75;;;-3.75;97.64
43701;BME280;58809;47.984;7.964;2023-01-30T00:50:38;97913.16;;;-3.73;97.42
43701;BME280;58809;47.984;7.964;2023-01-30T00:53:45;97901.22;;;-3.75;97.52
43701;BME280;58809;47.984;7.964;2023-01-30T00:56:47;97898.72;;;-3.77;97.17
43701;BME280;58809;47.984;7.964;2023-01-30T00:59:49;97894.59;;;-3.81;97.44
43701;BME280;58809;47.984;7.964;2023-01-30T01:02:50;97904.78;;;-3.78;98.03
43701;BME280;58809;47.984;7.964;2023-01-30T01:05:52;97880.38;;;-3.90;99.15
43701;BME280;58809;47.984;7.964;2023-01-30T01:08:54;97874.34;;;-3.90;99.84
43701;BME280;58809;47.984;7.964;2023-01-30T01:11:55;97868.50;;;-3.76;100.00
43701;BME280;58809;47.984;7.964;2023-01-30T01:14:57;97875.94;;;-3.70;100.00
43701;BME280;58809;47.984;7.964;2023-01-30T01:17:59;97876.25;;;-3.76;99.72
43701;BME280;58809;47.984;7.964;2023-01-30T01:21:00;97873.69;;;-3.76;99.66
43701;BME280;58809;47.984;7.964;2023-01-30T01:24:02;97869.84;;;-3.87;99.68
43701;BME280;58809;47.984;7.964;2023-01-30T01:27:03;97879.44;;;-3.89;99.52
43701;BME280;58809;47.984;7.964;2023-01-30T01:30:06;97901.81;;;-3.88;99.92
43701;BME280;58809;47.984;7.964;2023-01-30T01:33:10;97913.97;;;-3.90;99.49
43701;BME280;58809;47.984;7.964;2023-01-30T01:36:11;97914.44;;;-3.81;99.68
43701;BME280;58809;47.984;7.964;2023-01-30T01:39:29;97942.06;;;-3.82;98.92
43701;BME280;58809;47.984;7.964;2023-01-30T01:42:51;97953.03;;;-3.77;98.85
43701;BME280;58809;47.984;7.964;2023-01-30T01:46:06;97955.06;;;-3.83;98.32
43701;BME280;58809;47.984;7.964;2023-01-30T06:38:20;97948.47;;;-2.68;97.60
43701;BME280;58809;47.984;7.964;2023-01-30T06:41:21;97949.00;;;-2.62;97.78
43701;BME280;58809;47.984;7.964;2023-01-30T06:44:23;97940.81;;;-2.54;97.31
43701;BME280;58809;47.984;7.964;2023-01-30T06:47:24;97938.66;;;-2.46;96.64
43701;BME280;58809;47.984;7.964;2023-01-30T06:50:27;97935.75;;;-2.40;96.79
43701;BME280;58809;47.984;7.964;2023-01-30T06:53:29;97947.84;;;-2.40;96.36
43701;BME280;58809;47.984;7.964;2023-01-30T06:56:31;97941.84;;;-2.41;96.25
43701;BME280;58809;47.984;7.964;2023-01-30T06:59:32;97947.84;;;-2.40;97.17
43701;BME280;58809;47.984;7.964;2023-01-30T07:02:33;97942.84;;;-2.43;97.21
43701;BME280;58809;47.984;7.964;2023-01-30T07:05:37;97927.59;;;-2.49;97.23
43701;BME280;58809;47.984;7.964;2023-01-30T07:08:39;97920.25;;;-2.57;97.50
43701;BME280;58809;47.984;7.964;2023-01-30T07:11:41;97920.41;;;-2.60;98.45
43701;BME280;58809;47.984;7.964;2023-01-30T07:14:42;97917.31;;;-2.67;98.13
43701;BME280;58809;47.984;7.964;2023-01-30T07:17:44;97910.44;;;-2.68;98.53
43701;BME280;58809;47.984;7.964;2023-01-30T07:20:47;97899.19;;;-2.67;98.79
43701;BME280;58809;47.984;7.964;2023-01-30T07:23:48;97885.28;;;-2.66;98.67
43701;BME280;58809;47.984;7.964;2023-01-30T07:26:50;97888.81;;;-2.67;99.14
43701;BME280;58809;47.984;7.964;2023-01-30T07:29:51;97886.81;;;-2.62;98.45
43701;BME280;58809;47.984;7.964;2023-01-30T07:32:55;97880.13;;;-2.66;98.12
43701;BME280;58809;47.984;7.964;2023-01-30T07:35:58;97883.31;;;-2.61;99.08
43701;BME280;58809;47.984;7.964;2023-01-30T07:39:00;97891.50;;;-2.53;98.47
43701;BME280;58809;47.984;7.964;2023-01-30T07:42:02;97897.59;;;-2.54;97.75
43701;BME280;58809;47.984;7.964;2023-01-30T07:45:05;97899.84;;;-2.47;97.51
43701;BME280;58809;47.984;7.964;2023-01-30T07:48:08;97907.47;;;-2.44;97.31
43701;BME280;58809;47.984;7.964;2023-01-30T07:51:10;97904.72;;;-2.41;97.63
43701;BME280;58809;47.984;7.964;2023-01-30T07:54:12;97903.22;;;-2.29;97.63
43701;BME280;58809;47.984;7.964;2023-01-30T07:57:13;97908.81;;;-2.21;96.64
43701;BME280;58809;47.984;7.964;2023-01-30T08:00:15;97930.66;;;-2.09;96.63
43701;BME280;58809;47.984;7.964;2023-01-30T08:03:17;97946.28;;;-1.95;95.30
43701;BME280;58809;47.984;7.964;2023-01-30T08:06:19;97960.81;;;-1.77;94.24
43701;BME280;58809;47.984;7.964;2023-01-30T08:09:20;97951.03;;;-1.71;93.06
43701;BME280;58809;47.984;7.964;2023-01-30T08:12:22;97945.03;;;-1.42;93.20
43701;BME280;58809;47.984;7.964;2023-01-30T08:15:23;97948.31;;;-1.24;91.31
43701;BME280;58809;47.984;7.964;2023-01-30T08:18:27;97944.81;;;-1.08;90.93
43701;BME280;58809;47.984;7.964;2023-01-30T08:21:29;97949.59;;;-1.01;89.69
43701;BME280;58809;47.984;7.964;2023-01-30T08:24:30;97947.94;;;-0.87;89.02
43701;BME280;58809;47.984;7.964;2023-01-30T08:27:32;97948.13;;;-0.76;88.88
43701;BME280;58809;47.984;7.964;2023-01-30T08:30:33;97947.09;;;-0.59;88.41
43701;BME280;58809;47.984;7.964;2023-01-30T08:33:35;97937.00;;;-0.49;87.59
43701;BME280;58809;47.984;7.964;2023-01-30T08:36:36;97931.97;;;-0.38;87.64
43701;BME280;58809;47.984;7.964;2023-01-30T08:39:38;97945.19;;;-0.14;87.18
43701;BME280;58809;47.984;7.964;2023-01-30T08:42:39;97945.41;;;0.10;86.19
43701;BME280;58809;47.984;7.964;2023-01-30T08:45:41;97937.56;;;0.25;84.65
43701;BME280;58809;47.984;7.964;2023-01-30T08:48:42;97945.72;;;0.33;84.65
43701;BME280;58809;47.984;7.964;2023-01-30T08:51:50;97943.88;;;0.35;84.24
43701;BME280;58809;47.984;7.964;2023-01-30T08:54:52;97959.53;;;0.48;84.37
43701;BME280;58809;47.984;7.964;2023-01-30T08:57:55;97978.59;;;0.48;82.67
43701;BME280;58809;47.984;7.964;2023-01-30T09:00:57;97969.88;;;0.62;82.51
43701;BME280;58809;47.984;7.964;2023-01-30T09:03:58;97966.28;;;0.77;81.93
43701;BME280;58809;47.984;7.964;2023-01-30T09:07:00;97964.72;;;0.88;81.61
43701;BME280;58809;47.984;7.964;2023-01-30T09:10:01;97974.03;;;1.05;81.11
43701;BME280;58809;47.984;7.964;2023-01-30T09:13:03;97981.97;;;1.16;79.97
43701;BME280;58809;47.984;7.964;2023-01-30T09:16:05;97981.34;;;1.38;79.50
43701;BME280;58809;47.984;7.964;2023-01-30T09:19:07;97980.72;;;1.47;78.29
43701;BME280;58809;47.984;7.964;2023-01-30T09:22:09;97979.38;;;1.42;77.66
43701;BME280;58809;47.984;7.964;2023-01-30T09:25:10;97966.53;;;1.39;77.82
43701;BME280;58809;47.984;7.964;2023-01-30T09:28:12;97966.00;;;1.46;77.44
43701;BME280;58809;47.984;7.964;2023-01-30T09:31:14;97965.28;;;1.57;77.12
43701;BME280;58809;47.984;7.964;2023-01-30T09:34:15;97961.63;;;1.72;76.60
43701;BME280;58809;47.984;7.964;2023-01-30T09:37:17;97941.66;;;1.84;75.63
43701;BME280;58809;47.984;7.964;2023-01-30T09:40:30;97939.56;;;1.89;75.26
43701;BME280;58809;47.984;7.964;2023-01-30T09:46:49;97931.09;;;1.86;75.06
43701;BME280;58809;47.984;7.964;2023-01-30T09:50:15;97935.41;;;1.87;74.97
43701;BME280;58809;47.984;7.964;2023-01-30T09:53:51;97939.34;;;1.92;75.27
43701;BME280;58809;47.984;7.964;2023-01-30T09:57:18;97935.00;;;2.04;74.91
43701;BME280;58809;47.984;7.964;2023-01-30T10:00:36;97912.97;;;2.08;75.09
43701;BME280;58809;47.984;7.964;2023-01-30T10:03:54;97916.38;;;2.22;75.05
43701;BME280;58809;47.984;7.964;2023-01-30T10:17:33;97943.91;;;2.50;74.73
43701;BME280;58809;47.984;7.964;2023-01-30T10:24:18;97933.25;;;2.53;74.70
43701;BME280;58809;47.984;7.964;2023-01-30T10:27:24;97916.00;;;2.50;74.72
43701;BME280;58809;47.984;7.964;2023-01-30T10:30:26;97907.59;;;2.58;74.60
43701;BME280;58809;47.984;7.964;2023-01-30T10:33:34;97894.69;;;2.68;74.49
43701;BME280;58809;47.984;7.964;2023-01-30T10:40:30;97893.81;;;3.03;74.05
43701;BME280;58809;47.984;7.964;2023-01-30T10:43:40;97886.59;;;3.18;73.36
43701;BME280;58809;47.984;7.964;2023-01-30T10:50:22;97882.66;;;3.46;71.76
43701;BME280;58809;47.984;7.964;2023-01-30T10:53:38;97873.84;;;3.58;70.98
43701;BME280;58809;47.984;7.964;2023-01-30T10:56:52;97868.56;;;3.81;71.04
43701;BME280;58809;47.984;7.964;2023-01-30T11:06:45;97835.88;;;3.75;70.08
43701;BME280;58809;47.984;7.964;2023-01-30T11:09:47;97837.53;;;3.76;70.75
43701;BME280;58809;47.984;7.964;2023-01-30T11:13:12;97824.78;;;3.94;71.16
43701;BME280;58809;47.984;7.964;2023-01-30T11:16:15;97813.66;;;4.02;70.01
43701;BME280;58809;47.984;7.964;2023-01-30T11:19:20;97819.94;;;4.11;70.00
43701;BME280;58809;47.984;7.964;2023-01-30T11:22:24;97825.97;;;4.22;70.36
43701;BME280;58809;47.984;7.964;2023-01-30T11:25:29;97812.69;;;4.35;69.45
43701;BME280;58809;47.984;7.964;2023-01-30T11:28:38;97790.84;;;4.25;69.66
43701;BME280;58809;47.984;7.964;2023-01-30T11:31:41;97789.03;;;4.26;69.09
43701;BME280;58809;47.984;7.964;2023-01-30T11:34:43;97796.09;;;4.25;68.96
43701;BME280;58809;47.984;7.964;2023-01-30T11:37:44;97774.72;;;4.09;68.58
43701;BME280;58809;47.984;7.964;2023-01-30T11:40:46;97786.47;;;4.14;68.42
43701;BME280;58809;47.984;7.964;2023-01-30T11:43:47;97782.59;;;4.09;68.03
43701;BME280;58809;47.984;7.964;2023-01-30T11:46:49;97780.22;;;4.05;67.91
43701;BME280;58809;47.984;7.964;2023-01-30T11:49:55;97761.56;;;4.20;68.10
43701;BME280;58809;47.984;7.964;2023-01-30T11:56:51;97750.69;;;4.46;66.45
43701;BME280;58809;47.984;7.964;2023-01-30T11:59:55;97754.34;;;4.33;66.51
43701;BME280;58809;47.984;7.964;2023-01-30T12:03:03;97740.75;;;4.18;66.52
43701;BME280;58809;47.984;7.964;2023-01-30T12:06:05;97750.56;;;4.26;66.33
43701;BME280;58809;47.984;7.964;2023-01-30T12:09:35;97741.69;;;4.38;65.93
43701;BME280;58809;47.984;7.964;2023-01-30T12:12:46;97758.47;;;4.36;66.09
43701;BME280;58809;47.984;7.964;2023-01-30T12:15:55;97777.34;;;4.09;66.63
43701;BME280;58809;47.984;7.964;2023-01-30T12:19:09;97764.19;;;4.20;67.01
43701;BME280;58809;47.984;7.964;2023-01-30T12:25:51;97775.44;;;4.11;67.06
43701;BME280;58809;47.984;7.964;2023-01-30T12:32:09;97778.94;;;4.00;67.86
43701;BME280;58809;47.984;7.964;2023-01-30T12:35:22;97791.56;;;3.95;68.22
43701;BME280;58809;47.984;7.964;2023-01-30T12:45:36;97767.88;;;3.96;68.29
43701;BME280;58809;47.984;7.964;2023-01-30T12:49:04;97751.28;;;4.07;68.22
43701;BME280;58809;47.984;7.964;2023-01-30T13:05:36;97744.63;;;4.03;69.45
43701;BME280;58809;47.984;7.964;2023-01-30T13:08:57;97743.31;;;3.97;69.59
43701;BME280;58809;47.984;7.964;2023-01-30T13:12:14;97736.63;;;4.04;69.50
43701;BME280;58809;47.984;7.964;2023-01-30T13:18:54;97741.88;;;4.04;69.74
43701;BME280;58809;47.984;7.964;2023-01-30T13:25:31;97745.06;;;3.87;71.27
43701;BME280;58809;47.984;7.964;2023-01-30T13:28:45;97723.31;;;3.75;71.47
43701;BME280;58809;47.984;7.964;2023-01-30T13:31:52;97724.41;;;3.73;71.74
43701;BME280;58809;47.984;7.964;2023-01-30T13:34:57;97725.91;;;3.54;72.66
43701;BME280;58809;47.984;7.964;2023-01-30T13:37:59;97735.44;;;3.44;73.31
43701;BME280;58809;47.984;7.964;2023-01-30T13:41:03;97727.72;;;3.42;73.54
43701;BME280;58809;47.984;7.964;2023-01-30T13:44:16;97732.34;;;3.39;74.60
43701;BME280;58809;47.984;7.964;2023-01-30T13:50:44;97730.47;;;3.30;74.93
43701;BME280;58809;47.984;7.964;2023-01-30T14:00:51;97745.00;;;3.34;75.95
43701;BME280;58809;47.984;7.964;2023-01-30T14:03:53;97743.31;;;3.33;75.73
43701;BME280;58809;47.984;7.964;2023-01-30T14:10:20;97754.00;;;3.30;76.25
43701;BME280;58809;47.984;7.964;2023-01-30T14:13:25;97752.59;;;3.25;76.31
43701;BME280;58809;47.984;7.964;2023-01-30T14:16:42;97761.50;;;3.34;76.12
43701;BME280;58809;47.984;7.964;2023-01-30T14:22:56;97775.41;;;3.35;76.06
43701;BME280;58809;47.984;7.964;2023-01-30T14:25:59;97763.06;;;3.25;76.43
43701;BME280;58809;47.984;7.964;2023-01-30T14:29:00;97765.09;;;3.22;76.71
43701;BME280;58809;47.984;7.964;2023-01-30T14:35:29;97779.47;;;3.16;77.14
43701;BME280;58809;47.984;7.964;2023-01-30T14:38:31;97794.94;;;3.08;78.29
43701;BME280;58809;47.984;7.964;2023-01-30T14:41:33;97791.84;;;3.03;77.93
43701;BME280;58809;47.984;7.964;2023-01-30T14:51:55;97808.47;;;3.02;78.85
43701;BME280;58809;47.984;7.964;2023-01-30T14:54:56;97821.81;;;2.99;78.94
43701;BME280;58809;47.984;7.964;2023-01-30T14:58:00;97813.59;;;2.92;79.10
43701;BME280;58809;47.984;7.964;2023-01-30T15:01:03;97816.91;;;2.94;79.17
43701;BME280;58809;47.984;7.964;2023-01-30T15:04:05;97820.13;;;2.98;79.41
43701;BME280;58809;47.984;7.964;2023-01-30T15:07:09;97821.31;;;2.94;79.12
43701;BME280;58809;47.984;7.964;2023-01-30T15:10:21;97827.00;;;2.87;79.38
43701;BME280;58809;47.984;7.964;2023-01-30T15:13:50;97836.75;;;2.85;80.07
43701;BME280;58809;47.984;7.964;2023-01-30T15:20:28;97858.63;;;2.84;79.94
43701;BME280;58809;47.984;7.964;2023-01-30T15:33:45;97885.69;;;2.83;81.74
43701;BME280;58809;47.984;7.964;2023-01-30T15:36:47;97878.94;;;2.81;81.31
43701;BME280;58809;47.984;7.964;2023-01-30T15:39:49;97893.78;;;2.80;81.55
43701;BME280;58809;47.984;7.964;2023-01-30T15:46:09;97890.31;;;2.68;83.11
43701;BME280;58809;47.984;7.964;2023-01-30T15:52:44;97889.47;;;2.68;83.11
43701;BME280;58809;47.984;7.964;2023-01-30T15:55:49;97895.41;;;2.70;83.52
43701;BME280;58809;47.984;7.964;2023-01-30T15:58:51;97903.13;;;2.60;84.79
43701;BME280;58809;47.984;7.964;2023-01-30T16:02:26;97910.56;;;2.54;85.22
43701;BME280;58809;47.984;7.964;2023-01-30T16:05:29;97913.78;;;2.57;85.20
43701;BME280;58809;47.984;7.964;2023-01-30T16:08:33;97920.94;;;2.66;84.94
43701;BME280;58809;47.984;7.964;2023-01-30T16:11:39;97927.69;;;2.58;85.10
43701;BME280;58809;47.984;7.964;2023-01-30T16:14:40;97926.50;;;2.62;85.29
43701;BME280;58809;47.984;7.964;2023-01-30T16:17:44;97931.50;;;2.65;85.64
43701;BME280;58809;47.984;7.964;2023-01-30T16:20:52;97930.28;;;2.58;86.60
43701;BME280;58809;47.984;7.964;2023-01-30T16:24:03;97941.19;;;2.52;87.04
43701;BME280;58809;47.984;7.964;2023-01-30T16:27:17;97944.53;;;2.54;88.08
43701;BME280;58809;47.984;7.964;2023-01-30T16:30:22;97956.78;;;2.53;87.79
43701;BME280;58809;47.984;7.964;2023-01-30T16:33:25;97962.09;;;2.52;88.05
43701;BME280;58809;47.984;7.964;2023-01-30T16:36:29;97960.41;;;2.50;88.13
43701;BME280;58809;47.984;7.964;2023-01-30T16:39:35;97947.84;;;2.56;88.27
43701;BME280;58809;47.984;7.964;2023-01-30T16:42:37;97956.91;;;2.63;87.94
43701;BME280;58809;47.984;7.964;2023-01-30T16:49:01;97975.41;;;2.60;88.46
43701;BME280;58809;47.984;7.964;2023-01-30T16:55:22;97990.16;;;2.61;88.84
43701;BME280;58809;47.984;7.964;2023-01-30T16:58:30;97983.97;;;2.62;88.55
43701;BME280;58809;47.984;7.964;2023-01-30T17:01:38;97983.56;;;2.68;88.51
43701;BME280;58809;47.984;7.964;2023-01-30T17:04:40;97991.50;;;2.66;88.37
43701;BME280;58809;47.984;7.964;2023-01-30T17:07:44;97996.13;;;2.63;88.71
43701;BME280;58809;47.984;7.964;2023-01-30T17:10:49;98003.44;;;2.58;89.73
43701;BME280;58809;47.984;7.964;2023-01-30T17:14:09;98011.69;;;2.40;90.40
43701;BME280;58809;47.984;7.964;2023-01-30T17:17:12;98024.94;;;2.37;90.66
43701;BME280;58809;47.984;7.964;2023-01-30T17:20:14;98009.00;;;2.29;91.83
43701;BME280;58809;47.984;7.964;2023-01-30T17:23:17;98018.69;;;2.27;92.97
43701;BME280;58809;47.984;7.964;2023-01-30T17:26:20;98016.38;;;2.35;94.03
43701;BME280;58809;47.984;7.964;2023-01-30T17:29:21;98022.84;;;2.42;93.37
43701;BME280;58809;47.984;7.964;2023-01-30T17:32:42;98020.59;;;2.49;93.29
43701;BME280;58809;47.984;7.964;2023-01-30T17:35:44;98017.88;;;2.50;93.54
43701;BME280;58809;47.984;7.964;2023-01-30T17:38:46;98024.59;;;2.55;94.00
43701;BME280;58809;47.984;7.964;2023-01-30T17:41:48;98037.31;;;2.59;94.22
43701;BME280;58809;47.984;7.964;2023-01-30T17:44:50;98039.31;;;2.56;94.72
43701;BME280;58809;47.984;7.964;2023-01-30T17:47:52;98054.44;;;2.63;94.86
43701;BME280;58809;47.984;7.964;2023-01-30T17:50:53;98045.44;;;2.67;95.00
43701;BME280;58809;47.984;7.964;2023-01-30T17:53:55;98045.44;;;2.67;94.90
43701;BME280;58809;47.984;7.964;2023-01-30T17:57:01;98057.66;;;2.67;94.99
43701;BME280;58809;47.984;7.964;2023-01-30T18:00:04;98057.16;;;2.62;95.65
43701;BME280;58809;47.984;7.964;2023-01-30T18:03:09;98072.63;;;2.65;96.39
43701;BME280;58809;47.984;7.964;2023-01-30T18:06:14;98069.53;;;2.71;95.81
43701;BME280;58809;47.984;7.964;2023-01-30T18:09:23;98062.97;;;2.65;95.42
43701;BME280;58809;47.984;7.964;2023-01-30T18:12:24;98070.22;;;2.62;96.18
43701;BME280;58809;47.984;7.964;2023-01-30T18:15:26;98074.50;;;2.63;96.10
43701;BME280;58809;47.984;7.964;2023-01-30T18:18:28;98067.19;;;2.68;95.90
43701;BME280;58809;47.984;7.964;2023-01-30T18:21:31;98083.78;;;2.67;96.29
43701;BME280;58809;47.984;7.964;2023-01-30T18:24:33;98091.00;;;2.63;96.36
43701;BME280;58809;47.984;7.964;2023-01-30T18:27:34;98082.03;;;2.67;96.52
43701;BME280;58809;47.984;7.964;2023-01-30T18:30:36;98080.13;;;2.69;96.73
43701;BME280;58809;47.984;7.964;2023-01-30T18:33:38;98084.75;;;2.66;96.42
43701;BME280;58809;47.984;7.964;2023-01-30T18:36:41;98080.97;;;2.70;96.48
43701;BME280;58809;47.984;7.964;2023-01-30T18:39:43;98093.81;;;2.73;96.78
43701;BME280;58809;47.984;7.964;2023-01-30T18:42:44;98089.63;;;2.70;96.45
43701;BME280;58809;47.984;7.964;2023-01-30T18:45:47;98087.97;;;2.69;96.08
43701;BME280;58809;47.984;7.964;2023-01-30T18:48:48;98088.09;;;2.68;96.03
43701;BME280;58809;47.984;7.964;2023-01-30T18:51:50;98089.34;;;2.62;96.49
43701;BME280;58809;47.984;7.964;2023-01-30T18:54:51;98095.84;;;2.57;96.62
43701;BME280;58809;47.984;7.964;2023-01-30T18:57:53;98087.16;;;2.56;97.27
43701;BME280;58809;47.984;7.964;2023-01-30T19:00:55;98089.72;;;2.69;97.13
43701;BME280;58809;47.984;7.964;2023-01-30T19:03:59;98092.13;;;2.72;96.79
43701;BME280;58809;47.984;7.964;2023-01-30T19:07:01;98092.75;;;2.76;96.17
43701;BME280;58809;47.984;7.964;2023-01-30T19:10:03;98096.44;;;2.73;95.59
43701;BME280;58809;47.984;7.964;2023-01-30T19:13:05;98096.53;;;2.72;96.48
43701;BME280;58809;47.984;7.964;2023-01-30T19:16:26;98105.19;;;2.72;96.39
43701;BME280;58809;47.984;7.964;2023-01-30T19:19:28;98103.03;;;2.66;96.08
43701;BME280;58809;47.984;7.964;2023-01-30T19:22:30;98111.91;;;2.63;95.93
43701;BME280;58809;47.984;7.964;2023-01-30T19:25:31;98107.53;;;2.64;96.72
43701;BME280;58809;47.984;7.964;2023-01-30T19:28:33;98111.34;;;2.71;96.96
43701;BME280;58809;47.984;7.964;2023-01-30T19:31:35;98111.50;;;2.69;96.67
43701;BME280;58809;47.984;7.964;2023-01-30T19:34:37;98116.72;;;2.69;96.84
43701;BME280;58809;47.984;7.964;2023-01-30T19:37:39;98128.56;;;2.62;97.04
43701;BME280;58809;47.984;7.964;2023-01-30T19:40:43;98134.41;;;2.66;97.86
43701;BME280;58809;47.984;7.964;2023-01-30T19:43:45;98138.47;;;2.70;98.12
43701;BME280;58809;47.984;7.964;2023-01-30T19:46:47;98134.50;;;2.64;98.14
43701;BME280;58809;47.984;7.964;2023-01-30T19:49:50;98139.63;;;2.66;98.09
43701;BME280;58809;47.984;7.964;2023-01-30T19:52:52;98134.50;;;2.64;97.93
43701;BME280;58809;47.984;7.964;2023-01-30T19:55:53;98148.13;;;2.57;98.25
43701;BME280;58809;47.984;7.964;2023-01-30T19:58:56;98154.38;;;2.54;98.88
43701;BME280;58809;47.984;7.964;2023-01-30T20:01:59;98148.84;;;2.59;99.01
43701;BME280;58809;47.984;7.964;2023-01-30T20:05:00;98160.22;;;2.58;99.22
43701;BME280;58809;47.984;7.964;2023-01-30T20:08:03;98159.06;;;2.62;99.55
43701;BME280;58809;47.984;7.964;2023-01-30T20:11:07;98161.47;;;2.65;99.04
43701;BME280;58809;47.984;7.964;2023-01-30T20:14:09;98172.63;;;2.67;99.03
43701;BME280;58809;47.984;7.964;2023-01-30T20:17:11;98165.66;;;2.67;99.05
43701;BME280;58809;47.984;7.964;2023-01-30T20:20:14;98165.84;;;2.64;98.88
43701;BME280;58809;47.984;7.964;2023-01-30T20:23:17;98177.97;;;2.65;98.88
43701;BME280;58809;47.984;7.964;2023-01-30T20:26:25;98170.03;;;2.67;98.04
43701;BME280;58809;47.984;7.964;2023-01-30T20:29:27;98172.97;;;2.62;98.19
43701;BME280;58809;47.984;7.964;2023-01-30T20:32:28;98180.72;;;2.64;97.82
43701;BME280;58809;47.984;7.964;2023-01-30T20:35:34;98190.41;;;2.62;98.40
43701;BME280;58809;47.984;7.964;2023-01-30T20:38:37;98195.78;;;2.60;98.23
43701;BME280;58809;47.984;7.964;2023-01-30T20:41:39;98193.47;;;2.56;98.42
43701;BME280;58809;47.984;7.964;2023-01-30T20:44:41;98182.47;;;2.50;98.79
43701;BME280;58809;47.984;7.964;2023-01-30T20:47:42;98190.22;;;2.52;99.29
43701;BME280;58809;47.984;7.964;2023-01-30T20:50:44;98193.91;;;2.49;98.54
43701;BME280;58809;47.984;7.964;2023-01-30T20:53:51;98197.75;;;2.44;99.29
43701;BME280;58809;47.984;7.964;2023-01-30T20:56:53;98200.47;;;2.42;99.03
43701;BME280;58809;47.984;7.964;2023-01-30T20:59:54;98201.94;;;2.46;99.23
43701;BME280;58809;47.984;7.964;2023-01-30T21:02:56;98207.47;;;2.55;99.13
43701;BME280;58809;47.984;7.964;2023-01-30T21:05:59;98205.47;;;2.58;98.93
43701;BME280;58809;47.984;7.964;2023-01-30T21:09:03;98206.31;;;2.59;98.65
43701;BME280;58809;47.984;7.964;2023-01-30T21:12:05;98205.59;;;2.57;98.68
43701;BME280;58809;47.984;7.964;2023-01-30T21:15:08;98215.00;;;2.59;98.17
43701;BME280;58809;47.984;7.964;2023-01-30T21:18:09;98216.88;;;2.44;98.34
43701;BME280;58809;47.984;7.964;2023-01-30T21:21:37;98228.78;;;2.23;99.41
43701;BME280;58809;47.984;7.964;2023-01-30T21:24:39;98236.81;;;2.33;100.00
43701;BME280;58809;47.984;7.964;2023-01-30T21:27:41;98231.94;;;2.41;99.98
43701;BME280;58809;47.984;7.964;2023-01-30T21:30:46;98228.16;;;2.32;99.81
43701;BME280;58809;47.984;7.964;2023-01-30T21:33:48;98241.53;;;2.40;99.20
43701;BME280;58809;47.984;7.964;2023-01-30T21:36:49;98248.75;;;2.37;99.05
43701;BME280;58809;47.984;7.964;2023-01-30T21:40:10;98253.66;;;2.41;99.36
43701;BME280;58809;47.984;7.964;2023-01-30T21:43:30;98257.94;;;2.42;98.60
43701;BME280;58809;47.984;7.964;2023-01-30T21:46:35;98250.22;;;2.41;98.01
43701;BME280;58809;47.984;7.964;2023-01-30T21:49:38;98261.38;;;2.43;98.48
43701;BME280;58809;47.984;7.964;2023-01-30T21:52:40;98266.19;;;2.49;97.92
43701;BME280;58809;47.984;7.964;2023-01-30T21:55:42;98267.16;;;2.48;97.48
43701;BME280;58809;47.984;7.964;2023-01-30T21:58:49;98270.19;;;2.42;97.91
43701;BME280;58809;47.984;7.964;2023-01-30T22:01:50;98267.66;;;2.40;98.72
43701;BME280;58809;47.984;7.964;2023-01-30T22:04:52;98273.09;;;2.37;98.92
43701;BME280;58809;47.984;7.964;2023-01-30T22:07:53;98278.94;;;2.28;99.16
43701;BME280;58809;47.984;7.964;2023-01-30T22:11:07;98283.50;;;2.11;99.95
43701;BME280;58809;47.984;7.964;2023-01-30T22:14:09;98275.72;;;1.97;100.00
43701;BME280;58809;47.984;7.964;2023-01-30T22:17:14;98285.75;;;2.03;100.00
43701;BME280;58809;47.984;7.964;2023-01-30T22:20:16;98291.84;;;2.04;100.00
43701;BME280;58809;47.984;7.964;2023-01-30T22:23:17;98295.78;;;1.97;100.00
43701;BME280;58809;47.984;7.964;2023-01-30T22:26:22;98293.47;;;1.92;100.00
43701;BME280;58809;47.984;7.964;2023-01-30T22:29:24;98292.19;;;1.85;100.00
43701;BME280;58809;47.984;7.964;2023-01-30T22:32:25;98299.78;;;1.75;100.00
43701;BME280;58809;47.984;7.964;2023-01-30T22:35:27;98291.91;;;1.62;100.00
43701;BME280;58809;47.984;7.964;2023-01-30T22:38:28;98297.72;;;1.53;100.00
43701;BME280;58809;47.984;7.964;2023-01-30T22:41:32;98292.44;;;1.40;100.00
43701;BME280;58809;47.984;7.964;2023-01-30T22:44:37;98295.06;;;1.26;100.00
43701;BME280;58809;47.984;7.964;2023-01-30T22:47:40;98302.88;;;1.26;100.00
43701;BME280;58809;47.984;7.964;2023-01-30T22:50:41;98303.13;;;1.35;100.00
43701;BME280;58809;47.984;7.964;2023-01-30T22:53:51;98303.69;;;1.41;100.00
43701;BME280;58809;47.984;7.964;2023-01-30T22:56:53;98305.94;;;1.47;100.00
43701;BME280;58809;47.984;7.964;2023-01-30T22:59:55;98306.56;;;1.50;100.00
43701;BME280;58809;47.984;7.964;2023-01-30T23:02:56;98307.69;;;1.46;100.00
43701;BME280;58809;47.984;7.964;2023-01-30T23:05:59;98311.53;;;1.26;100.00
43701;BME280;58809;47.984;7.964;2023-01-30T23:09:02;98299.91;;;1.32;100.00
43701;BME280;58809;47.984;7.964;2023-01-30T23:12:05;98304.34;;;1.44;100.00
43701;BME280;58809;47.984;7.964;2023-01-30T23:15:25;98312.53;;;1.52;100.00
43701;BME280;58809;47.984;7.964;2023-01-30T23:18:27;98303.13;;;1.50;100.00
43701;BME280;58809;47.984;7.964;2023-01-30T23:21:47;98302.94;;;1.39;100.00